Terminal Aerodrome Forecast
Issued by NWS

Home | Current Version | Previous Version | Graphics & Text | Print | Product List | Glossary On
Versions: 1 2 3 4 5 6 7 8 9 10 11 12 13
493
FTUS43 KMPX 191441 AAA
TAFRWF
TAF AMD
KRWF 191441Z 1915/2012 33008KT P6SM BKN025
     FM191600 35005KT P6SM SCT025
     FM200200 36003KT P6SM SCT250
     FM200600 VRB03KT P6SM OVC100=

USA.gov is the U.S. government's official web portal to all federal, state and local government web resources and services.